createdAt,value
2023-05-16T00:01:37.130Z,12.4
2023-05-16T00:07:29.068Z,12.6
2023-05-16T00:13:22.142Z,12.6
2023-05-16T00:19:15.802Z,12.6
2023-05-16T00:25:08.374Z,12.6
2023-05-16T00:31:00.428Z,12.3
2023-05-16T00:36:52.068Z,12.1
2023-05-16T00:42:44.447Z,12.1
2023-05-16T00:48:36.635Z,12.1
2023-05-16T00:54:29.121Z,11.8
2023-05-16T01:00:22.116Z,11.8
2023-05-16T01:06:15.374Z,11.9
2023-05-16T01:12:07.600Z,11.7
2023-05-16T01:17:59.443Z,11.8
2023-05-16T01:23:52.538Z,11.7
2023-05-16T01:29:45.424Z,11.6
2023-05-16T01:35:37.502Z,11.6
2023-05-16T01:41:29.143Z,11.6
2023-05-16T01:47:21.066Z,11.6
2023-05-16T01:53:13.067Z,11.5
2023-05-16T01:59:05.651Z,11.8
2023-05-16T02:04:57.646Z,11.6
2023-05-16T02:10:50.123Z,11.4
2023-05-16T02:16:42.779Z,11.4
2023-05-16T02:22:36.168Z,11.4
2023-05-16T02:28:28.035Z,11.3
2023-05-16T02:34:20.626Z,11.4
2023-05-16T02:40:12.089Z,11.3
2023-05-16T02:46:04.348Z,11.1
2023-05-16T02:51:56.737Z,11.2
2023-05-16T02:57:48.574Z,11.1
2023-05-16T03:03:41.284Z,10.8
2023-05-16T03:09:33.893Z,10.7
2023-05-16T03:15:26.027Z,10.7
2023-05-16T03:33:33.166Z,10.3
2023-05-16T03:39:26.103Z,10.2
2023-05-16T03:45:26.999Z,10.2
2023-05-16T03:51:26.125Z,10.1
2023-05-16T04:16:06.107Z,9.7
2023-05-16T04:22:01.048Z,9.7
2023-05-16T04:58:48.800Z,9.5
2023-05-16T05:25:45.022Z,9.4
2023-05-16T06:14:54.182Z,9.2
2023-05-16T06:20:47.807Z,9.4
2023-05-16T06:32:49.339Z,9.3
2023-05-16T06:38:48.401Z,9.5
2023-05-16T06:51:10.922Z,9.7
2023-05-16T06:57:06.564Z,9.8
2023-05-16T07:39:35.083Z,10.1
2023-05-16T07:45:34.665Z,10.2
2023-05-16T07:51:53.392Z,10.4
2023-05-16T07:57:45.997Z,10.4
2023-05-16T08:03:39.098Z,10.3
2023-05-16T08:09:33.977Z,10.1
2023-05-16T08:15:25.046Z,10.1
2023-05-16T08:22:29.896Z,10.6
2023-05-16T08:28:21.503Z,10.5
2023-05-16T08:34:14.255Z,10.7
2023-05-16T08:40:08.514Z,11.1
2023-05-16T08:46:01.795Z,11.2
2023-05-16T08:51:57.929Z,11
2023-05-16T08:59:08.057Z,11.5
2023-05-16T09:11:05.297Z,11.5
2023-05-16T09:17:05.775Z,11.7
2023-05-16T09:35:59.809Z,11.9
2023-05-16T09:41:58.827Z,11.9
2023-05-16T10:06:11.890Z,12.2
2023-05-16T10:12:04.750Z,12.7
2023-05-16T10:17:57.460Z,12.8
2023-05-16T10:23:49.795Z,12.8
2023-05-16T10:29:53.291Z,13
2023-05-16T10:35:44.970Z,13
2023-05-16T10:41:37.875Z,13.2
2023-05-16T10:47:35.196Z,13.5
2023-05-16T10:53:27.290Z,13.2
2023-05-16T10:59:19.405Z,13.5
2023-05-16T11:05:11.271Z,13.8
2023-05-16T11:11:03.522Z,13.1
2023-05-16T11:16:56.024Z,13.3
2023-05-16T11:22:48.388Z,13.4
2023-05-16T11:28:40.424Z,13.6
2023-05-16T11:34:32.618Z,13.9
2023-05-16T11:40:24.343Z,13.7
2023-05-16T11:46:16.991Z,13.8
2023-05-16T11:52:11.448Z,13.9
2023-05-16T11:58:05.700Z,14
2023-05-16T12:03:58.524Z,14.3
2023-05-16T12:09:52.687Z,14.3
2023-05-16T12:15:45.029Z,14.4
2023-05-16T12:21:37.558Z,14.4
2023-05-16T12:27:30.387Z,14.7
2023-05-16T12:33:25.608Z,14.9
2023-05-16T12:39:19.229Z,14.9
2023-05-16T12:45:11.558Z,14.4
2023-05-16T12:51:03.334Z,14.4
2023-05-16T12:56:56.030Z,14.6
2023-05-16T13:02:52.839Z,14.7
2023-05-16T13:08:45.287Z,14.6
2023-05-16T13:14:38.868Z,14.6
2023-05-16T13:20:31.809Z,14.9
2023-05-16T13:26:23.817Z,14.9
2023-05-16T13:32:15.900Z,14.9
2023-05-16T13:38:08.334Z,14.7
2023-05-16T13:44:00.842Z,14.9
2023-05-16T13:49:53.940Z,14.9
2023-05-16T13:55:48.058Z,14.6
2023-05-16T14:01:41.090Z,14.6
2023-05-16T14:07:33.811Z,14.4
2023-05-16T14:13:27.640Z,14.1
2023-05-16T14:19:24.324Z,14
2023-05-16T14:25:18.314Z,13.9
2023-05-16T14:31:12.620Z,14.3
2023-05-16T14:37:06.580Z,14.4
2023-05-16T14:42:58.573Z,14.5
2023-05-16T14:48:51.801Z,14.3
2023-05-16T14:54:44.565Z,14.6
2023-05-16T15:00:37.732Z,14.7
2023-05-16T15:06:30.125Z,14.7
2023-05-16T15:12:22.085Z,14.7
2023-05-16T15:18:15.534Z,14.6
2023-05-16T15:24:09.864Z,14.7
2023-05-16T15:30:02.168Z,14.5
2023-05-16T15:35:54.389Z,14.7
2023-05-16T15:42:05.679Z,14.8
2023-05-16T15:47:59.984Z,14.6
2023-05-16T15:53:52.828Z,14.6
2023-05-16T15:59:44.700Z,14.8
2023-05-16T16:05:36.632Z,14.8
2023-05-16T16:11:29.045Z,14.8
2023-05-16T16:17:21.234Z,15.1
2023-05-16T16:23:13.599Z,15.2
2023-05-16T16:29:06.292Z,15.2
2023-05-16T16:34:58.799Z,15
2023-05-16T16:40:51.168Z,15.3
2023-05-16T16:46:43.222Z,15
2023-05-16T16:52:35.414Z,14.8
2023-05-16T16:58:27.457Z,15
2023-05-16T17:04:19.914Z,14.7
2023-05-16T17:10:11.991Z,14.7
2023-05-16T17:16:04.010Z,14.4
2023-05-16T17:21:56.634Z,14.2
2023-05-16T17:27:49.051Z,14.1
2023-05-16T17:33:41.809Z,14
2023-05-16T17:39:33.718Z,14
2023-05-16T17:45:26.087Z,13.9
2023-05-16T17:51:18.347Z,13.8
2023-05-16T17:57:10.295Z,13.7
2023-05-16T18:03:02.387Z,13.6
2023-05-16T18:08:54.849Z,13.6
2023-05-16T18:14:46.650Z,13.7
2023-05-16T18:20:39.518Z,13.4
2023-05-16T18:26:31.750Z,13.3
2023-05-16T18:32:24.516Z,13.2
2023-05-16T18:38:28.721Z,13.1
2023-05-16T18:44:23.068Z,13.1
2023-05-16T18:50:17.304Z,13
2023-05-16T18:56:09.564Z,12.9
2023-05-16T19:02:01.714Z,12.9
2023-05-16T19:07:53.939Z,12.8
2023-05-16T19:13:46.194Z,12.7
2023-05-16T19:19:38.333Z,12.7
2023-05-16T19:25:30.509Z,12.6
2023-05-16T19:31:23.872Z,12.6
2023-05-16T19:37:15.361Z,12.5
2023-05-16T19:43:08.132Z,12.5
2023-05-16T19:49:01.043Z,12.5
2023-05-16T19:54:53.583Z,12.4
2023-05-16T20:00:46.045Z,12.4
2023-05-16T20:06:38.038Z,12.4
2023-05-16T20:12:30.011Z,12.4
2023-05-16T20:18:22.369Z,12.4
2023-05-16T20:24:14.534Z,12.3
2023-05-16T20:30:06.627Z,12.3
2023-05-16T20:35:58.838Z,12.3
2023-05-16T20:41:51.335Z,12.3
2023-05-16T20:47:41.490Z,12.2
2023-05-16T20:53:34.166Z,12.2
2023-05-16T20:59:26.753Z,12.2
2023-05-16T21:05:24.732Z,12.2
2023-05-16T21:11:17.274Z,12.2
2023-05-16T21:17:09.678Z,12.2
2023-05-16T21:23:02.688Z,12
2023-05-16T21:28:55.726Z,12
2023-05-16T21:34:49.613Z,11.9
2023-05-16T21:40:42.507Z,11.8
2023-05-16T21:46:34.503Z,11.7
2023-05-16T21:52:27.293Z,11.9
2023-05-16T21:58:19.526Z,11.9
2023-05-16T22:04:11.506Z,11.8
2023-05-16T22:10:06.089Z,11.8
2023-05-16T22:16:04.263Z,11.8
2023-05-16T22:21:56.702Z,11.9
2023-05-16T22:27:49.073Z,11.7
2023-05-16T22:33:41.414Z,11.8
2023-05-16T22:39:35.856Z,11.8
2023-05-16T22:45:27.946Z,11.8
2023-05-16T22:51:21.774Z,11.8
2023-05-16T22:57:13.917Z,11.8
2023-05-16T23:03:06.159Z,11.9
2023-05-16T23:08:59.031Z,11.8
2023-05-16T23:14:51.784Z,11.8
2023-05-16T23:20:43.991Z,11.7
2023-05-16T23:26:37.746Z,11.6
2023-05-16T23:32:30.137Z,11.7
2023-05-16T23:38:22.760Z,11.8
2023-05-16T23:44:15.568Z,11.7
2023-05-16T23:50:07.194Z,11.7
2023-05-16T23:55:59.603Z,11.5
